| time (UTC) | temp F | wind direction | speed MPH | gust MPH | rain 1hr in | rain 24hr in | rain mn in | humidity % | barometer mb |
| 20260906011509 | 61 | 344 | 0.0 | 0.0 | 0.00 | 0.00 | 0.00 | 78 | 1000.7 |
| 20260906010009 | 61 | 337 | 0.0 | 0.0 | 0.00 | 0.00 | 0.00 | 77 | 1000.7 |
| 20260906004509 | 62 | 337 | 0.0 | 0.0 | 0.00 | 0.00 | 0.00 | 76 | 1001.0 |
| 20260906003009 | 62 | 346 | 0.0 | 0.0 | 0.00 | 0.00 | 0.00 | 75 | 1000.7 |
| 20260906001509 | 63 | 355 | 0.0 | 0.0 | 0.00 | 0.00 | 0.00 | 72 | 1000.7 |
| 20260906000008 | 64 | 349 | 0.0 | 0.0 | 0.00 | 0.00 | 0.00 | 73 | 1001.0 |
| 20260905233009 | 65 | 47 | 0.0 | 2.0 | 0.00 | 0.00 | 0.01 | 69 | 1001.0 |
| 20260905231508 | 65 | 11 | 0.0 | 0.0 | 0.00 | 0.00 | 0.01 | 72 | 1001.0 |
| 20260905230008 | 65 | 24 | 0.0 | 1.0 | 0.00 | 0.00 | 0.01 | 68 | 1001.4 |
| 20260905224508 | 66 | 352 | 0.0 | 0.0 | 0.00 | 0.00 | 0.01 | 68 | 1001.4 |
| 20260905221508 | 67 | 80 | 2.0 | 3.0 | 0.00 | 0.00 | 0.01 | 67 | 1001.4 |
| 20260905220008 | 68 | 8 | 0.0 | 3.0 | 0.00 | 0.00 | 0.01 | 68 | 1001.4 |
| 20260905214509 | 69 | 62 | 2.0 | 3.0 | 0.00 | 0.00 | 0.01 | 61 | 1001.4 |
| 20260905213008 | 70 | 71 | 2.0 | 4.0 | 0.00 | 0.00 | 0.01 | 57 | 1001.4 |
| 20260905211508 | 70 | 354 | 2.0 | 3.0 | 0.00 | 0.00 | 0.01 | 59 | 1001.4 |
| 20260905210009 | 70 | 53 | 0.0 | 3.0 | 0.00 | 0.00 | 0.01 | 63 | 1001.4 |
| 20260905204508 | 69 | 5 | 2.0 | 3.0 | 0.00 | 0.00 | 0.01 | 62 | 1001.4 |
| 20260905203008 | 70 | 36 | 2.0 | 6.0 | 0.00 | 0.00 | 0.01 | 60 | 1001.4 |
| 20260905200009 | 70 | 24 | 0.0 | 1.0 | 0.00 | 0.00 | 0.01 | 67 | 1001.0 |
| 20260905194507 | 69 | 337 | 0.0 | 0.0 | 0.00 | 0.00 | 0.01 | 68 | 1001.0 |
| 20260905193008 | 69 | 39 | 0.0 | 2.0 | 0.00 | 0.00 | 0.01 | 67 | 1001.4 |
| 20260905191508 | 68 | 44 | 0.0 | 2.0 | 0.00 | 0.00 | 0.01 | 67 | 1001.4 |
| 20260905190009 | 66 | 77 | 0.0 | 1.0 | 0.00 | 0.00 | 0.01 | 73 | 1001.7 |
| 20260905184507 | 65 | 39 | 0.0 | 2.0 | 0.00 | 0.00 | 0.01 | 74 | 1001.7 |
| 20260905183007 | 65 | 16 | 0.0 | 0.0 | 0.00 | 0.00 | 0.01 | 78 | 1001.7 |
| 20260905181507 | 64 | 342 | 0.0 | 0.0 | 0.00 | 0.00 | 0.01 | 80 | 1001.7 |
| 20260905180008 | 62 | 13 | 0.0 | 0.0 | 0.00 | 0.00 | 0.01 | 84 | 1001.7 |
| 20260905174508 | 60 | 32 | 0.0 | 0.0 | 0.00 | 0.00 | 0.01 | 89 | 1001.7 |
| 20260905173008 | 58 | 302 | 0.0 | 0.0 | 0.00 | 0.00 | 0.01 | 93 | 1001.7 |
| 20260905172007 | 58 | 351 | 0.0 | 0.0 | 0.00 | 0.00 | 0.01 | 94 | 1001.7 |
| 20260905170507 | 56 | 306 | 0.0 | 0.0 | 0.00 | 0.00 | 0.01 | 94 | 1001.7 |
| 20260905165008 | 55 | 331 | 0.0 | 0.0 | 0.00 | 0.00 | 0.01 | 94 | 1001.7 |
| 20260905163508 | 53 | 339 | 0.0 | 0.0 | 0.00 | 0.00 | 0.01 | 94 | 1001.7 |
| 20260905162007 | 52 | 342 | 0.0 | 0.0 | 0.00 | 0.00 | 0.01 | 94 | 1001.7 |
| 20260905160507 | 50 | 342 | 0.0 | 0.0 | 0.00 | 0.00 | 0.01 | 94 | 1001.7 |
| 20260905155007 | 49 | 347 | 0.0 | 0.0 | 0.00 | 0.00 | 0.01 | 93 | 1001.7 |
| 20260905153507 | 48 | 358 | 0.0 | 0.0 | 0.00 | 0.00 | 0.01 | 93 | 1001.7 |
| 20260905152007 | 47 | 358 | 0.0 | 0.0 | 0.00 | 0.00 | 0.01 | 93 | 1001.7 |
| 20260905150507 | 47 | 0 | 0.0 | 0.0 | 0.00 | 0.00 | 0.01 | 93 | 1001.4 |
| 20260905145007 | 47 | 359 | 0.0 | 0.0 | 0.00 | 0.00 | 0.01 | 93 | 1001.4 |
| 20260905143507 | 47 | 2 | 0.0 | 0.0 | 0.00 | 0.00 | 0.01 | 93 | 1001.7 |
| 20260905142006 | 46 | 11 | 0.0 | 0.0 | 0.00 | 0.00 | 0.01 | 93 | 1001.4 |
| 20260905133507 | 47 | 14 | 0.0 | 0.0 | 0.00 | 0.00 | 0.01 | 93 | 1001.0 |
| 20260905132007 | 47 | 4 | 0.0 | 0.0 | 0.00 | 0.00 | 0.01 | 93 | 1001.0 |
| 20260905130507 | 47 | 359 | 0.0 | 0.0 | 0.00 | 0.00 | 0.01 | 93 | 1001.0 |
| 20260905125006 | 47 | 28 | 0.0 | 0.0 | 0.00 | 0.00 | 0.01 | 93 | 1001.0 |
| 20260905123007 | 47 | 15 | 0.0 | 0.0 | 0.00 | 0.00 | 0.01 | 93 | 1001.0 |
| 20260905121507 | 47 | 21 | 0.0 | 0.0 | 0.00 | 0.00 | 0.01 | 93 | 1001.0 |
| 20260905120006 | 48 | 5 | 0.0 | 0.0 | 0.00 | 0.00 | 0.01 | 92 | 1001.0 |
| 20260905114506 | 48 | 7 | 0.0 | 0.0 | 0.00 | 0.00 | 0.01 | 92 | 1001.0 |
| 20260905113007 | 48 | 13 | 0.0 | 0.0 | 0.00 | 0.00 | 0.01 | 92 | 1001.0 |
| 20260905111507 | 48 | 8 | 0.0 | 0.0 | 0.00 | 0.00 | 0.01 | 92 | 1001.4 |
| 20260905110007 | 48 | 13 | 0.0 | 0.0 | 0.00 | 0.00 | 0.01 | 92 | 1001.0 |
| 20260905104507 | 49 | 358 | 0.0 | 0.0 | 0.00 | 0.00 | 0.01 | 92 | 1001.0 |
| 20260905103006 | 49 | 359 | 0.0 | 0.0 | 0.00 | 0.00 | 0.01 | 92 | 1001.0 |
| 20260905101506 | 49 | 19 | 0.0 | 0.0 | 0.00 | 0.00 | 0.01 | 92 | 1001.0 |
| 20260905100006 | 49 | 21 | 0.0 | 0.0 | 0.00 | 0.00 | 0.01 | 92 | 1001.0 |
| 20260905094506 | 49 | 9 | 0.0 | 0.0 | 0.00 | 0.00 | 0.01 | 92 | 1001.0 |
| 20260905093007 | 50 | 13 | 0.0 | 0.0 | 0.00 | 0.00 | 0.01 | 92 | 1001.4 |
| 20260905091506 | 50 | 0 | 0.0 | 0.0 | 0.00 | 0.00 | 0.01 | 92 | 1001.4 |
| 20260905090506 | 50 | 7 | 0.0 | 0.0 | 0.00 | 0.00 | 0.01 | 92 | 1001.4 |
| 20260905085005 | 50 | 9 | 0.0 | 0.0 | 0.00 | 0.00 | 0.01 | 92 | 1001.4 |
| 20260905083506 | 50 | 20 | 0.0 | 0.0 | 0.00 | 0.00 | 0.01 | 92 | 1001.4 |
| 20260905081506 | 51 | 10 | 0.0 | 0.0 | 0.00 | 0.00 | 0.01 | 92 | 1001.4 |
| 20260905080005 | 51 | 29 | 0.0 | 0.0 | 0.00 | 0.00 | 0.01 | 92 | 1001.7 |
| 20260905074505 | 51 | 7 | 0.0 | 0.0 | 0.00 | 0.00 | 0.01 | 91 | 1001.7 |
| 20260905073006 | 52 | 18 | 0.0 | 0.0 | 0.00 | 0.00 | 0.01 | 91 | 1001.4 |
| 20260905071506 | 52 | 15 | 0.0 | 0.0 | 0.00 | 0.00 | 0.01 | 91 | 1001.4 |
| 20260905070505 | 52 | 22 | 0.0 | 0.0 | 0.00 | 0.00 | 0.01 | 91 | 1001.4 |
| 20260905062006 | 53 | 23 | 0.0 | 0.0 | 0.00 | 0.00 | 0.01 | 90 | 1001.4 |
| 20260905061005 | 53 | 24 | 0.0 | 0.0 | 0.00 | 0.00 | 0.01 | 90 | 1001.4 |
| 20260905054505 | 54 | 1 | 0.0 | 0.0 | 0.00 | 0.00 | 0.01 | 90 | 1001.4 |
| 20260905053005 | 54 | 27 | 0.0 | 0.0 | 0.00 | 0.00 | 0.01 | 89 | 1001.7 |
| 20260905051505 | 55 | 6 | 0.0 | 0.0 | 0.00 | 0.00 | 0.01 | 89 | 1001.7 |
| 20260905050005 | 55 | 12 | 0.0 | 0.0 | 0.00 | 0.00 | 0.01 | 89 | 1001.7 |
| 20260905044505 | 55 | 9 | 0.0 | 0.0 | 0.00 | 0.00 | 0.01 | 88 | 1001.4 |
| 20260905043006 | 56 | 21 | 0.0 | 0.0 | 0.00 | 0.00 | 0.01 | 87 | 1001.4 |
| 20260905041505 | 57 | 2 | 0.0 | 0.0 | 0.00 | 0.00 | 0.01 | 87 | 1001.4 |
| 20260905040005 | 57 | 354 | 0.0 | 0.0 | 0.00 | 0.00 | 0.01 | 86 | 1001.0 |
| 20260905034506 | 57 | 326 | 0.0 | 0.0 | 0.00 | 0.00 | 0.01 | 86 | 1001.0 |
| 20260905033006 | 57 | 318 | 0.0 | 0.0 | 0.00 | 0.00 | 0.01 | 86 | 1000.7 |
| 20260905031506 | 58 | 342 | 0.0 | 0.0 | 0.00 | 0.00 | 0.01 | 86 | 1000.7 |
| 20260905024505 | 58 | 320 | 0.0 | 0.0 | 0.00 | 0.00 | 0.01 | 85 | 1000.7 |
| 20260905021506 | 59 | 341 | 0.0 | 0.0 | 0.00 | 0.00 | 0.01 | 85 | 1000.7 |
| 20260905020005 | 59 | 12 | 0.0 | 0.0 | 0.00 | 0.00 | 0.01 | 84 | 1000.7 |
| 20260905014505 | 60 | 337 | 0.0 | 0.0 | 0.00 | 0.00 | 0.01 | 83 | 1000.7 |
| 20260905013005 | 60 | 335 | 0.0 | 0.0 | 0.00 | 0.00 | 0.01 | 83 | 1000.7 |